sensor_id;sensor_type;location;lat;lon;timestamp;P1;durP1;ratioP1;P2;durP2;ratioP2
50066;SDS011;35952;52.524;13.340;2023-05-07T00:02:12;18.00;;;15.40;;
50066;SDS011;35952;52.524;13.340;2023-05-07T00:04:38;17.87;;;16.07;;
50066;SDS011;35952;52.524;13.340;2023-05-07T00:07:03;16.17;;;14.57;;
50066;SDS011;35952;52.524;13.340;2023-05-07T00:09:29;19.67;;;15.97;;
50066;SDS011;35952;52.524;13.340;2023-05-07T00:11:54;17.67;;;15.97;;
50066;SDS011;35952;52.524;13.340;2023-05-07T00:14:20;18.60;;;14.53;;
50066;SDS011;35952;52.524;13.340;2023-05-07T00:16:45;25.93;;;15.00;;
50066;SDS011;35952;52.524;13.340;2023-05-07T00:19:11;15.47;;;13.97;;
50066;SDS011;35952;52.524;13.340;2023-05-07T00:21:37;15.23;;;13.83;;
50066;SDS011;35952;52.524;13.340;2023-05-07T00:24:03;15.73;;;14.20;;
50066;SDS011;35952;52.524;13.340;2023-05-07T00:26:28;15.77;;;14.10;;
50066;SDS011;35952;52.524;13.340;2023-05-07T00:28:54;15.33;;;13.83;;
50066;SDS011;35952;52.524;13.340;2023-05-07T00:31:19;15.90;;;14.07;;
50066;SDS011;35952;52.524;13.340;2023-05-07T00:33:45;19.13;;;14.80;;
50066;SDS011;35952;52.524;13.340;2023-05-07T00:36:11;15.50;;;14.00;;
50066;SDS011;35952;52.524;13.340;2023-05-07T00:38:37;14.60;;;13.30;;
50066;SDS011;35952;52.524;13.340;2023-05-07T00:41:05;16.63;;;14.77;;
50066;SDS011;35952;52.524;13.340;2023-05-07T00:43:31;15.90;;;14.23;;
50066;SDS011;35952;52.524;13.340;2023-05-07T00:45:57;19.03;;;14.17;;
50066;SDS011;35952;52.524;13.340;2023-05-07T00:48:22;17.00;;;12.93;;
50066;SDS011;35952;52.524;13.340;2023-05-07T00:50:49;15.00;;;13.47;;
50066;SDS011;35952;52.524;13.340;2023-05-07T00:53:15;14.03;;;12.67;;
50066;SDS011;35952;52.524;13.340;2023-05-07T00:55:40;16.20;;;12.77;;
50066;SDS011;35952;52.524;13.340;2023-05-07T00:58:06;15.07;;;13.67;;
50066;SDS011;35952;52.524;13.340;2023-05-07T01:00:32;13.83;;;12.47;;
50066;SDS011;35952;52.524;13.340;2023-05-07T01:02:57;15.67;;;14.10;;
50066;SDS011;35952;52.524;13.340;2023-05-07T01:05:23;13.70;;;12.50;;
50066;SDS011;35952;52.524;13.340;2023-05-07T01:07:50;16.80;;;14.23;;
50066;SDS011;35952;52.524;13.340;2023-05-07T01:10:18;16.97;;;15.27;;
50066;SDS011;35952;52.524;13.340;2023-05-07T01:12:44;14.13;;;12.73;;
50066;SDS011;35952;52.524;13.340;2023-05-07T01:15:11;16.83;;;15.03;;
50066;SDS011;35952;52.524;13.340;2023-05-07T01:17:40;15.77;;;14.27;;
50066;SDS011;35952;52.524;13.340;2023-05-07T01:20:06;15.37;;;13.77;;
50066;SDS011;35952;52.524;13.340;2023-05-07T01:22:32;15.87;;;13.50;;
50066;SDS011;35952;52.524;13.340;2023-05-07T01:24:59;15.50;;;13.70;;
50066;SDS011;35952;52.524;13.340;2023-05-07T01:27:26;15.07;;;13.50;;
50066;SDS011;35952;52.524;13.340;2023-05-07T01:29:52;14.53;;;13.13;;
50066;SDS011;35952;52.524;13.340;2023-05-07T01:32:19;13.90;;;12.60;;
50066;SDS011;35952;52.524;13.340;2023-05-07T01:34:52;17.63;;;13.03;;
50066;SDS011;35952;52.524;13.340;2023-05-07T01:37:20;14.57;;;13.10;;
50066;SDS011;35952;52.524;13.340;2023-05-07T01:39:46;18.83;;;13.40;;
50066;SDS011;35952;52.524;13.340;2023-05-07T01:42:13;14.83;;;12.80;;
50066;SDS011;35952;52.524;13.340;2023-05-07T01:44:38;14.07;;;12.67;;
50066;SDS011;35952;52.524;13.340;2023-05-07T01:47:04;16.00;;;13.37;;
50066;SDS011;35952;52.524;13.340;2023-05-07T01:49:31;14.20;;;11.67;;
50066;SDS011;35952;52.524;13.340;2023-05-07T01:51:56;15.37;;;13.10;;
50066;SDS011;35952;52.524;13.340;2023-05-07T01:54:26;13.70;;;12.27;;
50066;SDS011;35952;52.524;13.340;2023-05-07T01:56:55;15.23;;;13.63;;
50066;SDS011;35952;52.524;13.340;2023-05-07T01:59:22;13.53;;;12.33;;
50066;SDS011;35952;52.524;13.340;2023-05-07T02:01:47;13.47;;;12.20;;
50066;SDS011;35952;52.524;13.340;2023-05-07T02:04:13;14.30;;;12.90;;
50066;SDS011;35952;52.524;13.340;2023-05-07T02:06:38;19.20;;;13.50;;
50066;SDS011;35952;52.524;13.340;2023-05-07T02:09:04;13.77;;;12.37;;
50066;SDS011;35952;52.524;13.340;2023-05-07T02:11:29;19.13;;;14.17;;
50066;SDS011;35952;52.524;13.340;2023-05-07T02:13:55;17.80;;;13.97;;
50066;SDS011;35952;52.524;13.340;2023-05-07T02:16:20;15.40;;;13.80;;
50066;SDS011;35952;52.524;13.340;2023-05-07T02:18:48;18.60;;;14.10;;
50066;SDS011;35952;52.524;13.340;2023-05-07T02:21:13;15.70;;;14.17;;
50066;SDS011;35952;52.524;13.340;2023-05-07T02:23:39;15.20;;;13.60;;
50066;SDS011;35952;52.524;13.340;2023-05-07T02:26:05;15.90;;;14.23;;
50066;SDS011;35952;52.524;13.340;2023-05-07T02:28:30;16.23;;;14.53;;
50066;SDS011;35952;52.524;13.340;2023-05-07T02:30:56;18.13;;;14.87;;
50066;SDS011;35952;52.524;13.340;2023-05-07T02:33:23;15.67;;;14.07;;
50066;SDS011;35952;52.524;13.340;2023-05-07T02:35:49;14.40;;;12.90;;
50066;SDS011;35952;52.524;13.340;2023-05-07T02:38:16;15.30;;;13.80;;
50066;SDS011;35952;52.524;13.340;2023-05-07T02:40:42;14.70;;;13.30;;
50066;SDS011;35952;52.524;13.340;2023-05-07T02:43:07;15.27;;;13.77;;
50066;SDS011;35952;52.524;13.340;2023-05-07T02:45:33;16.07;;;13.80;;
50066;SDS011;35952;52.524;13.340;2023-05-07T02:47:59;16.97;;;14.77;;
50066;SDS011;35952;52.524;13.340;2023-05-07T02:50:24;16.00;;;14.30;;
50066;SDS011;35952;52.524;13.340;2023-05-07T02:52:51;15.23;;;13.73;;
50066;SDS011;35952;52.524;13.340;2023-05-07T02:55:17;16.43;;;13.30;;
50066;SDS011;35952;52.524;13.340;2023-05-07T02:57:42;16.30;;;13.57;;
50066;SDS011;35952;52.524;13.340;2023-05-07T03:00:12;14.10;;;12.70;;
50066;SDS011;35952;52.524;13.340;2023-05-07T03:02:42;13.53;;;12.13;;
50066;SDS011;35952;52.524;13.340;2023-05-07T03:05:08;14.80;;;13.40;;
50066;SDS011;35952;52.524;13.340;2023-05-07T03:07:34;16.50;;;12.73;;
50066;SDS011;35952;52.524;13.340;2023-05-07T03:10:00;13.97;;;12.63;;
50066;SDS011;35952;52.524;13.340;2023-05-07T03:12:26;15.33;;;13.13;;
50066;SDS011;35952;52.524;13.340;2023-05-07T03:14:51;12.73;;;11.33;;
50066;SDS011;35952;52.524;13.340;2023-05-07T03:17:17;14.60;;;13.10;;
50066;SDS011;35952;52.524;13.340;2023-05-07T03:19:42;14.73;;;13.23;;
50066;SDS011;35952;52.524;13.340;2023-05-07T03:22:08;13.07;;;11.90;;
50066;SDS011;35952;52.524;13.340;2023-05-07T03:24:33;15.13;;;13.60;;
50066;SDS011;35952;52.524;13.340;2023-05-07T03:26:59;15.70;;;13.90;;
50066;SDS011;35952;52.524;13.340;2023-05-07T03:29:26;13.97;;;12.50;;
50066;SDS011;35952;52.524;13.340;2023-05-07T03:31:51;14.50;;;11.50;;
50066;SDS011;35952;52.524;13.340;2023-05-07T03:34:17;13.97;;;12.50;;
50066;SDS011;35952;52.524;13.340;2023-05-07T03:36:46;15.07;;;12.00;;
50066;SDS011;35952;52.524;13.340;2023-05-07T03:39:15;14.07;;;11.47;;
50066;SDS011;35952;52.524;13.340;2023-05-07T03:41:40;12.70;;;11.37;;
50066;SDS011;35952;52.524;13.340;2023-05-07T03:44:06;14.00;;;12.50;;
50066;SDS011;35952;52.524;13.340;2023-05-07T03:46:33;13.40;;;12.03;;
50066;SDS011;35952;52.524;13.340;2023-05-07T03:48:58;12.17;;;10.90;;
50066;SDS011;35952;52.524;13.340;2023-05-07T03:51:24;16.03;;;12.73;;
50066;SDS011;35952;52.524;13.340;2023-05-07T03:53:50;14.60;;;12.37;;
50066;SDS011;35952;52.524;13.340;2023-05-07T03:56:18;14.17;;;12.70;;
50066;SDS011;35952;52.524;13.340;2023-05-07T03:58:43;15.13;;;12.10;;
50066;SDS011;35952;52.524;13.340;2023-05-07T04:01:09;15.43;;;13.83;;
50066;SDS011;35952;52.524;13.340;2023-05-07T04:03:35;14.07;;;12.70;;
50066;SDS011;35952;52.524;13.340;2023-05-07T04:06:00;14.43;;;13.00;;
50066;SDS011;35952;52.524;13.340;2023-05-07T04:08:26;13.70;;;12.40;;
50066;SDS011;35952;52.524;13.340;2023-05-07T04:10:55;14.20;;;12.70;;
50066;SDS011;35952;52.524;13.340;2023-05-07T04:13:24;13.10;;;11.80;;
50066;SDS011;35952;52.524;13.340;2023-05-07T04:15:50;15.70;;;14.13;;
50066;SDS011;35952;52.524;13.340;2023-05-07T04:18:19;14.00;;;11.80;;
50066;SDS011;35952;52.524;13.340;2023-05-07T04:20:46;13.70;;;12.20;;
50066;SDS011;35952;52.524;13.340;2023-05-07T04:23:12;14.20;;;12.53;;
50066;SDS011;35952;52.524;13.340;2023-05-07T04:25:38;13.77;;;12.47;;
50066;SDS011;35952;52.524;13.340;2023-05-07T04:28:03;15.33;;;12.07;;
50066;SDS011;35952;52.524;13.340;2023-05-07T04:30:29;14.00;;;12.50;;
50066;SDS011;35952;52.524;13.340;2023-05-07T04:32:54;12.67;;;11.33;;
50066;SDS011;35952;52.524;13.340;2023-05-07T04:35:21;12.63;;;11.40;;
50066;SDS011;35952;52.524;13.340;2023-05-07T04:37:46;12.83;;;11.60;;
50066;SDS011;35952;52.524;13.340;2023-05-07T04:40:12;17.43;;;12.83;;
50066;SDS011;35952;52.524;13.340;2023-05-07T04:42:38;13.03;;;11.77;;
50066;SDS011;35952;52.524;13.340;2023-05-07T04:45:03;12.03;;;10.90;;
50066;SDS011;35952;52.524;13.340;2023-05-07T04:47:29;12.40;;;11.20;;
50066;SDS011;35952;52.524;13.340;2023-05-07T04:49:55;10.07;;;9.07;;
50066;SDS011;35952;52.524;13.340;2023-05-07T04:52:21;11.90;;;10.60;;
50066;SDS011;35952;52.524;13.340;2023-05-07T04:54:46;12.20;;;11.00;;
50066;SDS011;35952;52.524;13.340;2023-05-07T04:57:12;11.07;;;10.00;;
50066;SDS011;35952;52.524;13.340;2023-05-07T04:59:37;12.23;;;11.03;;
50066;SDS011;35952;52.524;13.340;2023-05-07T05:02:03;12.53;;;11.33;;
50066;SDS011;35952;52.524;13.340;2023-05-07T05:04:29;12.73;;;11.50;;
50066;SDS011;35952;52.524;13.340;2023-05-07T05:06:55;11.60;;;9.83;;
50066;SDS011;35952;52.524;13.340;2023-05-07T05:09:20;11.40;;;10.30;;
50066;SDS011;35952;52.524;13.340;2023-05-07T05:11:46;10.37;;;8.90;;
50066;SDS011;35952;52.524;13.340;2023-05-07T05:14:11;10.00;;;9.20;;
50066;SDS011;35952;52.524;13.340;2023-05-07T05:16:37;11.03;;;10.00;;
50066;SDS011;35952;52.524;13.340;2023-05-07T05:19:02;10.70;;;9.80;;
50066;SDS011;35952;52.524;13.340;2023-05-07T05:21:28;10.93;;;9.80;;
50066;SDS011;35952;52.524;13.340;2023-05-07T05:23:54;9.97;;;9.07;;
50066;SDS011;35952;52.524;13.340;2023-05-07T05:26:19;11.07;;;10.00;;
50066;SDS011;35952;52.524;13.340;2023-05-07T05:28:46;10.17;;;9.10;;
50066;SDS011;35952;52.524;13.340;2023-05-07T05:31:11;10.60;;;9.50;;
50066;SDS011;35952;52.524;13.340;2023-05-07T05:33:37;9.87;;;8.97;;
50066;SDS011;35952;52.524;13.340;2023-05-07T05:36:03;11.63;;;8.87;;
50066;SDS011;35952;52.524;13.340;2023-05-07T05:38:28;10.20;;;9.20;;
50066;SDS011;35952;52.524;13.340;2023-05-07T05:40:54;10.93;;;9.93;;
50066;SDS011;35952;52.524;13.340;2023-05-07T05:43:19;10.40;;;9.30;;
50066;SDS011;35952;52.524;13.340;2023-05-07T05:45:45;9.43;;;8.30;;
50066;SDS011;35952;52.524;13.340;2023-05-07T05:48:10;9.20;;;8.30;;
50066;SDS011;35952;52.524;13.340;2023-05-07T05:50:36;10.60;;;9.60;;
50066;SDS011;35952;52.524;13.340;2023-05-07T05:53:02;10.87;;;9.87;;
50066;SDS011;35952;52.524;13.340;2023-05-07T05:55:27;12.03;;;9.90;;
50066;SDS011;35952;52.524;13.340;2023-05-07T05:57:53;13.10;;;9.60;;
50066;SDS011;35952;52.524;13.340;2023-05-07T06:00:19;9.13;;;8.30;;
50066;SDS011;35952;52.524;13.340;2023-05-07T06:02:47;9.37;;;8.20;;
50066;SDS011;35952;52.524;13.340;2023-05-07T06:05:13;10.33;;;8.27;;
50066;SDS011;35952;52.524;13.340;2023-05-07T06:07:38;10.00;;;8.80;;
50066;SDS011;35952;52.524;13.340;2023-05-07T06:10:04;9.63;;;8.53;;
50066;SDS011;35952;52.524;13.340;2023-05-07T06:12:30;9.27;;;7.60;;
50066;SDS011;35952;52.524;13.340;2023-05-07T06:14:55;8.77;;;7.90;;
50066;SDS011;35952;52.524;13.340;2023-05-07T06:17:21;9.67;;;8.40;;
50066;SDS011;35952;52.524;13.340;2023-05-07T06:19:46;10.50;;;8.83;;
50066;SDS011;35952;52.524;13.340;2023-05-07T06:22:12;10.13;;;9.13;;
50066;SDS011;35952;52.524;13.340;2023-05-07T06:24:37;14.87;;;13.33;;
50066;SDS011;35952;52.524;13.340;2023-05-07T06:27:03;9.33;;;8.53;;
50066;SDS011;35952;52.524;13.340;2023-05-07T06:29:28;9.33;;;8.53;;
50066;SDS011;35952;52.524;13.340;2023-05-07T06:31:56;9.83;;;8.80;;
50066;SDS011;35952;52.524;13.340;2023-05-07T06:34:30;8.93;;;8.13;;
50066;SDS011;35952;52.524;13.340;2023-05-07T06:36:56;10.23;;;9.33;;
50066;SDS011;35952;52.524;13.340;2023-05-07T06:39:21;10.77;;;9.70;;
50066;SDS011;35952;52.524;13.340;2023-05-07T06:41:47;12.00;;;9.87;;
50066;SDS011;35952;52.524;13.340;2023-05-07T06:44:12;11.20;;;10.10;;
50066;SDS011;35952;52.524;13.340;2023-05-07T06:46:38;9.50;;;8.53;;
50066;SDS011;35952;52.524;13.340;2023-05-07T06:49:03;10.93;;;9.90;;
50066;SDS011;35952;52.524;13.340;2023-05-07T06:51:29;9.00;;;8.30;;
50066;SDS011;35952;52.524;13.340;2023-05-07T06:53:55;11.07;;;10.10;;
50066;SDS011;35952;52.524;13.340;2023-05-07T06:56:20;9.20;;;8.37;;
50066;SDS011;35952;52.524;13.340;2023-05-07T06:58:46;9.30;;;8.50;;
50066;SDS011;35952;52.524;13.340;2023-05-07T07:01:11;9.70;;;8.90;;
50066;SDS011;35952;52.524;13.340;2023-05-07T07:03:37;10.10;;;9.10;;
50066;SDS011;35952;52.524;13.340;2023-05-07T07:06:02;9.90;;;8.90;;
50066;SDS011;35952;52.524;13.340;2023-05-07T07:08:28;11.17;;;9.50;;
50066;SDS011;35952;52.524;13.340;2023-05-07T07:10:53;9.57;;;8.67;;
50066;SDS011;35952;52.524;13.340;2023-05-07T07:13:19;9.33;;;8.43;;
50066;SDS011;35952;52.524;13.340;2023-05-07T07:15:44;9.60;;;8.60;;
50066;SDS011;35952;52.524;13.340;2023-05-07T07:18:10;8.50;;;7.80;;
50066;SDS011;35952;52.524;13.340;2023-05-07T07:20:35;8.50;;;7.70;;
50066;SDS011;35952;52.524;13.340;2023-05-07T07:23:01;8.57;;;7.60;;
50066;SDS011;35952;52.524;13.340;2023-05-07T07:25:26;8.00;;;7.20;;
50066;SDS011;35952;52.524;13.340;2023-05-07T07:27:52;7.63;;;7.03;;
50066;SDS011;35952;52.524;13.340;2023-05-07T07:30:17;7.63;;;6.87;;
50066;SDS011;35952;52.524;13.340;2023-05-07T07:32:43;8.57;;;7.47;;
50066;SDS011;35952;52.524;13.340;2023-05-07T07:35:08;7.37;;;6.50;;
50066;SDS011;35952;52.524;13.340;2023-05-07T07:37:34;10.80;;;9.90;;
50066;SDS011;35952;52.524;13.340;2023-05-07T07:40:00;7.07;;;6.47;;
50066;SDS011;35952;52.524;13.340;2023-05-07T07:42:26;7.30;;;6.70;;
50066;SDS011;35952;52.524;13.340;2023-05-07T07:44:51;6.27;;;5.77;;
50066;SDS011;35952;52.524;13.340;2023-05-07T07:47:17;10.37;;;6.53;;
50066;SDS011;35952;52.524;13.340;2023-05-07T07:49:42;5.90;;;5.50;;
50066;SDS011;35952;52.524;13.340;2023-05-07T07:52:08;6.07;;;5.47;;
50066;SDS011;35952;52.524;13.340;2023-05-07T07:54:33;5.23;;;4.83;;
50066;SDS011;35952;52.524;13.340;2023-05-07T07:56:59;5.80;;;5.30;;
50066;SDS011;35952;52.524;13.340;2023-05-07T07:59:26;6.13;;;5.53;;
50066;SDS011;35952;52.524;13.340;2023-05-07T08:01:52;6.10;;;5.50;;
50066;SDS011;35952;52.524;13.340;2023-05-07T08:04:20;5.60;;;5.20;;
50066;SDS011;35952;52.524;13.340;2023-05-07T08:06:46;5.13;;;4.63;;
50066;SDS011;35952;52.524;13.340;2023-05-07T08:09:11;5.47;;;5.07;;
50066;SDS011;35952;52.524;13.340;2023-05-07T08:11:37;5.50;;;5.00;;
50066;SDS011;35952;52.524;13.340;2023-05-07T08:14:03;5.37;;;4.83;;
50066;SDS011;35952;52.524;13.340;2023-05-07T08:16:29;5.60;;;5.20;;
50066;SDS011;35952;52.524;13.340;2023-05-07T08:18:55;6.30;;;5.70;;
50066;SDS011;35952;52.524;13.340;2023-05-07T08:21:20;4.50;;;4.10;;
50066;SDS011;35952;52.524;13.340;2023-05-07T08:23:46;4.60;;;4.30;;
50066;SDS011;35952;52.524;13.340;2023-05-07T08:26:12;4.77;;;4.47;;
50066;SDS011;35952;52.524;13.340;2023-05-07T08:28:37;5.20;;;4.83;;
50066;SDS011;35952;52.524;13.340;2023-05-07T08:31:06;5.00;;;4.60;;
50066;SDS011;35952;52.524;13.340;2023-05-07T08:33:31;4.80;;;4.40;;
50066;SDS011;35952;52.524;13.340;2023-05-07T08:35:57;5.13;;;4.73;;
50066;SDS011;35952;52.524;13.340;2023-05-07T08:38:23;4.93;;;4.53;;
50066;SDS011;35952;52.524;13.340;2023-05-07T08:40:48;9.97;;;7.43;;
50066;SDS011;35952;52.524;13.340;2023-05-07T08:43:14;5.17;;;4.70;;
50066;SDS011;35952;52.524;13.340;2023-05-07T08:45:40;5.33;;;4.70;;
50066;SDS011;35952;52.524;13.340;2023-05-07T08:48:16;5.90;;;5.40;;
50066;SDS011;35952;52.524;13.340;2023-05-07T08:50:43;4.67;;;4.27;;
50066;SDS011;35952;52.524;13.340;2023-05-07T08:53:08;4.70;;;4.30;;
50066;SDS011;35952;52.524;13.340;2023-05-07T08:55:34;7.70;;;5.10;;
50066;SDS011;35952;52.524;13.340;2023-05-07T08:58:00;5.10;;;4.70;;
50066;SDS011;35952;52.524;13.340;2023-05-07T09:00:26;8.53;;;4.80;;
50066;SDS011;35952;52.524;13.340;2023-05-07T09:02:52;4.70;;;4.30;;
50066;SDS011;35952;52.524;13.340;2023-05-07T09:05:18;5.10;;;4.60;;
50066;SDS011;35952;52.524;13.340;2023-05-07T09:07:44;5.33;;;4.80;;
50066;SDS011;35952;52.524;13.340;2023-05-07T09:10:11;4.30;;;4.00;;
50066;SDS011;35952;52.524;13.340;2023-05-07T09:12:37;4.87;;;4.37;;
50066;SDS011;35952;52.524;13.340;2023-05-07T09:15:04;5.17;;;3.87;;
50066;SDS011;35952;52.524;13.340;2023-05-07T09:17:30;4.00;;;3.70;;
50066;SDS011;35952;52.524;13.340;2023-05-07T09:19:56;4.80;;;4.40;;
50066;SDS011;35952;52.524;13.340;2023-05-07T09:22:21;6.37;;;4.70;;
50066;SDS011;35952;52.524;13.340;2023-05-07T09:24:50;4.30;;;4.00;;
50066;SDS011;35952;52.524;13.340;2023-05-07T09:27:17;4.33;;;4.03;;
50066;SDS011;35952;52.524;13.340;2023-05-07T09:29:43;4.50;;;4.10;;
50066;SDS011;35952;52.524;13.340;2023-05-07T09:32:09;4.80;;;4.30;;
50066;SDS011;35952;52.524;13.340;2023-05-07T09:34:35;7.30;;;4.20;;
50066;SDS011;35952;52.524;13.340;2023-05-07T09:37:01;6.37;;;4.80;;
50066;SDS011;35952;52.524;13.340;2023-05-07T09:39:41;4.63;;;4.30;;
50066;SDS011;35952;52.524;13.340;2023-05-07T09:42:07;5.10;;;4.70;;
50066;SDS011;35952;52.524;13.340;2023-05-07T09:44:34;7.10;;;6.50;;
50066;SDS011;35952;52.524;13.340;2023-05-07T09:47:00;4.63;;;4.23;;
50066;SDS011;35952;52.524;13.340;2023-05-07T09:49:29;6.10;;;3.53;;
50066;SDS011;35952;52.524;13.340;2023-05-07T09:51:55;4.90;;;4.30;;
50066;SDS011;35952;52.524;13.340;2023-05-07T09:54:24;4.37;;;3.97;;
50066;SDS011;35952;52.524;13.340;2023-05-07T09:56:51;4.53;;;4.20;;
50066;SDS011;35952;52.524;13.340;2023-05-07T09:59:17;5.40;;;4.20;;
50066;SDS011;35952;52.524;13.340;2023-05-07T10:01:45;4.63;;;4.27;;
50066;SDS011;35952;52.524;13.340;2023-05-07T10:04:11;4.53;;;4.30;;
50066;SDS011;35952;52.524;13.340;2023-05-07T10:06:37;4.60;;;4.20;;
50066;SDS011;35952;52.524;13.340;2023-05-07T10:09:03;4.50;;;4.20;;
50066;SDS011;35952;52.524;13.340;2023-05-07T10:11:33;3.77;;;3.47;;
50066;SDS011;35952;52.524;13.340;2023-05-07T10:13:59;3.80;;;3.50;;
50066;SDS011;35952;52.524;13.340;2023-05-07T10:16:30;4.30;;;3.90;;
50066;SDS011;35952;52.524;13.340;2023-05-07T10:18:58;5.20;;;3.83;;
50066;SDS011;35952;52.524;13.340;2023-05-07T10:21:24;4.72;;;3.13;;
50066;SDS011;35952;52.524;13.340;2023-05-07T10:24:04;4.00;;;3.10;;
50066;SDS011;35952;52.524;13.340;2023-05-07T10:26:40;2.97;;;2.77;;
50066;SDS011;35952;52.524;13.340;2023-05-07T10:29:17;3.40;;;3.10;;
50066;SDS011;35952;52.524;13.340;2023-05-07T10:31:50;3.23;;;3.03;;
50066;SDS011;35952;52.524;13.340;2023-05-07T10:34:20;3.87;;;3.60;;
50066;SDS011;35952;52.524;13.340;2023-05-07T10:36:48;6.57;;;3.20;;
50066;SDS011;35952;52.524;13.340;2023-05-07T10:39:16;6.87;;;3.13;;
50066;SDS011;35952;52.524;13.340;2023-05-07T10:41:42;3.53;;;3.23;;
50066;SDS011;35952;52.524;13.340;2023-05-07T10:44:08;3.80;;;3.50;;
50066;SDS011;35952;52.524;13.340;2023-05-07T10:46:33;5.70;;;5.27;;
50066;SDS011;35952;52.524;13.340;2023-05-07T10:51:25;2.90;;;2.70;;
50066;SDS011;35952;52.524;13.340;2023-05-07T10:54:25;3.03;;;2.83;;
50066;SDS011;35952;52.524;13.340;2023-05-07T10:56:53;2.97;;;2.73;;
50066;SDS011;35952;52.524;13.340;2023-05-07T11:04:28;2.97;;;2.67;;
50066;SDS011;35952;52.524;13.340;2023-05-07T11:15:12;2.77;;;2.60;;
50066;SDS011;35952;52.524;13.340;2023-05-07T11:17:56;3.83;;;3.43;;
50066;SDS011;35952;52.524;13.340;2023-05-07T11:26:05;3.10;;;2.40;;
50066;SDS011;35952;52.524;13.340;2023-05-07T11:28:32;5.20;;;3.27;;
50066;SDS011;35952;52.524;13.340;2023-05-07T11:31:05;2.80;;;2.60;;
50066;SDS011;35952;52.524;13.340;2023-05-07T11:33:34;3.03;;;2.53;;
50066;SDS011;35952;52.524;13.340;2023-05-07T11:36:07;5.13;;;3.63;;
50066;SDS011;35952;52.524;13.340;2023-05-07T11:38:36;3.60;;;3.30;;
50066;SDS011;35952;52.524;13.340;2023-05-07T11:41:02;3.67;;;3.33;;
50066;SDS011;35952;52.524;13.340;2023-05-07T11:43:30;3.47;;;3.27;;
50066;SDS011;35952;52.524;13.340;2023-05-07T11:45:58;3.87;;;3.67;;
50066;SDS011;35952;52.524;13.340;2023-05-07T11:48:39;3.50;;;3.30;;
50066;SDS011;35952;52.524;13.340;2023-05-07T11:51:06;3.30;;;3.00;;
50066;SDS011;35952;52.524;13.340;2023-05-07T11:53:37;4.00;;;3.70;;
50066;SDS011;35952;52.524;13.340;2023-05-07T11:56:14;3.50;;;3.20;;
50066;SDS011;35952;52.524;13.340;2023-05-07T11:58:41;4.40;;;4.07;;
50066;SDS011;35952;52.524;13.340;2023-05-07T12:01:08;3.47;;;3.17;;
50066;SDS011;35952;52.524;13.340;2023-05-07T12:03:36;3.50;;;3.20;;
50066;SDS011;35952;52.524;13.340;2023-05-07T12:06:07;3.33;;;3.03;;
50066;SDS011;35952;52.524;13.340;2023-05-07T12:08:38;7.83;;;7.13;;
50066;SDS011;35952;52.524;13.340;2023-05-07T12:11:08;3.57;;;3.27;;
50066;SDS011;35952;52.524;13.340;2023-05-07T12:13:36;3.33;;;3.13;;
50066;SDS011;35952;52.524;13.340;2023-05-07T12:16:02;3.60;;;2.97;;
50066;SDS011;35952;52.524;13.340;2023-05-07T12:18:29;3.63;;;3.33;;
50066;SDS011;35952;52.524;13.340;2023-05-07T12:20:55;2.90;;;2.70;;
50066;SDS011;35952;52.524;13.340;2023-05-07T12:23:21;3.33;;;3.13;;
50066;SDS011;35952;52.524;13.340;2023-05-07T12:25:47;4.03;;;2.80;;
50066;SDS011;35952;52.524;13.340;2023-05-07T12:28:17;5.13;;;2.63;;
50066;SDS011;35952;52.524;13.340;2023-05-07T12:30:44;4.83;;;3.10;;
50066;SDS011;35952;52.524;13.340;2023-05-07T12:33:11;3.70;;;2.50;;
50066;SDS011;35952;52.524;13.340;2023-05-07T12:35:39;2.80;;;2.47;;
50066;SDS011;35952;52.524;13.340;2023-05-07T12:38:13;3.10;;;2.50;;
50066;SDS011;35952;52.524;13.340;2023-05-07T12:40:42;3.10;;;2.87;;
50066;SDS011;35952;52.524;13.340;2023-05-07T12:43:24;3.80;;;3.40;;
50066;SDS011;35952;52.524;13.340;2023-05-07T12:45:50;3.50;;;3.20;;
50066;SDS011;35952;52.524;13.340;2023-05-07T12:48:17;2.87;;;2.67;;
50066;SDS011;35952;52.524;13.340;2023-05-07T12:50:43;4.13;;;3.73;;
50066;SDS011;35952;52.524;13.340;2023-05-07T12:53:10;5.30;;;4.80;;
50066;SDS011;35952;52.524;13.340;2023-05-07T12:55:44;3.30;;;3.10;;
50066;SDS011;35952;52.524;13.340;2023-05-07T12:58:19;4.00;;;3.30;;
50066;SDS011;35952;52.524;13.340;2023-05-07T13:00:48;2.77;;;2.57;;
50066;SDS011;35952;52.524;13.340;2023-05-07T13:03:28;2.70;;;2.50;;
50066;SDS011;35952;52.524;13.340;2023-05-07T13:05:57;2.80;;;2.60;;
50066;SDS011;35952;52.524;13.340;2023-05-07T13:08:25;3.70;;;3.40;;
50066;SDS011;35952;52.524;13.340;2023-05-07T13:10:52;4.07;;;3.77;;
50066;SDS011;35952;52.524;13.340;2023-05-07T13:13:18;2.97;;;2.60;;
50066;SDS011;35952;52.524;13.340;2023-05-07T13:15:45;5.70;;;4.47;;
50066;SDS011;35952;52.524;13.340;2023-05-07T13:18:10;3.70;;;3.40;;
50066;SDS011;35952;52.524;13.340;2023-05-07T13:20:36;5.73;;;3.10;;
50066;SDS011;35952;52.524;13.340;2023-05-07T13:23:01;2.60;;;2.33;;
50066;SDS011;35952;52.524;13.340;2023-05-07T13:25:29;2.37;;;2.27;;
50066;SDS011;35952;52.524;13.340;2023-05-07T13:27:56;3.70;;;2.17;;
50066;SDS011;35952;52.524;13.340;2023-05-07T13:30:22;3.20;;;2.50;;
50066;SDS011;35952;52.524;13.340;2023-05-07T13:32:47;2.77;;;2.57;;
50066;SDS011;35952;52.524;13.340;2023-05-07T13:35:13;3.77;;;3.47;;
50066;SDS011;35952;52.524;13.340;2023-05-07T13:37:39;3.00;;;2.70;;
50066;SDS011;35952;52.524;13.340;2023-05-07T13:40:05;3.77;;;2.93;;
50066;SDS011;35952;52.524;13.340;2023-05-07T13:42:31;3.20;;;2.90;;
50066;SDS011;35952;52.524;13.340;2023-05-07T13:44:57;2.50;;;2.30;;
50066;SDS011;35952;52.524;13.340;2023-05-07T13:47:22;3.00;;;2.80;;
50066;SDS011;35952;52.524;13.340;2023-05-07T13:49:48;2.57;;;2.37;;
50066;SDS011;35952;52.524;13.340;2023-05-07T13:52:15;3.13;;;2.50;;
50066;SDS011;35952;52.524;13.340;2023-05-07T13:54:41;5.20;;;4.70;;
50066;SDS011;35952;52.524;13.340;2023-05-07T13:57:06;5.73;;;5.17;;
50066;SDS011;35952;52.524;13.340;2023-05-07T13:59:33;3.63;;;3.17;;
50066;SDS011;35952;52.524;13.340;2023-05-07T14:01:58;3.20;;;3.00;;
50066;SDS011;35952;52.524;13.340;2023-05-07T14:04:24;4.50;;;4.10;;
50066;SDS011;35952;52.524;13.340;2023-05-07T14:06:50;3.30;;;3.00;;
50066;SDS011;35952;52.524;13.340;2023-05-07T14:09:16;9.77;;;8.70;;
50066;SDS011;35952;52.524;13.340;2023-05-07T14:11:41;3.43;;;3.07;;
50066;SDS011;35952;52.524;13.340;2023-05-07T14:14:07;3.40;;;2.50;;
50066;SDS011;35952;52.524;13.340;2023-05-07T14:16:35;2.90;;;2.70;;
50066;SDS011;35952;52.524;13.340;2023-05-07T14:19:01;2.83;;;2.53;;
50066;SDS011;35952;52.524;13.340;2023-05-07T14:21:27;3.13;;;2.83;;
50066;SDS011;35952;52.524;13.340;2023-05-07T14:23:52;3.13;;;2.83;;
50066;SDS011;35952;52.524;13.340;2023-05-07T14:26:18;3.57;;;2.53;;
50066;SDS011;35952;52.524;13.340;2023-05-07T14:28:44;3.27;;;2.80;;
50066;SDS011;35952;52.524;13.340;2023-05-07T14:31:11;5.00;;;2.80;;
50066;SDS011;35952;52.524;13.340;2023-05-07T14:33:37;3.20;;;2.77;;
50066;SDS011;35952;52.524;13.340;2023-05-07T14:36:03;7.10;;;6.50;;
50066;SDS011;35952;52.524;13.340;2023-05-07T14:38:29;2.70;;;2.50;;
50066;SDS011;35952;52.524;13.340;2023-05-07T14:40:57;5.97;;;5.37;;
50066;SDS011;35952;52.524;13.340;2023-05-07T14:43:23;4.33;;;3.93;;